createdAt,value
2019-05-07T00:01:56.494Z,12.07
2019-05-07T00:04:22.502Z,10.87
2019-05-07T00:06:47.299Z,10.27
2019-05-07T00:09:13.858Z,11.87
2019-05-07T00:11:38.384Z,10.73
2019-05-07T00:14:03.207Z,13.70
2019-05-07T00:16:27.903Z,12.50
2019-05-07T00:18:52.701Z,14.57
2019-05-07T00:21:17.168Z,11.63
2019-05-07T00:23:43.225Z,12.20
2019-05-07T00:26:08.036Z,11.80
2019-05-07T00:28:32.670Z,11.33
2019-05-07T00:30:57.182Z,11.60
2019-05-07T00:33:22.774Z,11.80
2019-05-07T00:35:48.899Z,13.70
2019-05-07T00:38:15.012Z,11.83
2019-05-07T00:40:42.568Z,11.53
2019-05-07T00:43:12.123Z,12.00
2019-05-07T00:45:44.246Z,13.80
2019-05-07T00:48:08.735Z,12.03
2019-05-07T00:50:34.905Z,13.77
2019-05-07T00:52:59.515Z,12.50
2019-05-07T00:55:24.056Z,14.17
2019-05-07T00:57:48.520Z,13.47
2019-05-07T01:00:14.250Z,13.80
2019-05-07T01:02:38.728Z,14.13
2019-05-07T01:05:03.297Z,14.07
2019-05-07T01:07:29.108Z,13.07
2019-05-07T01:09:55.175Z,13.70
2019-05-07T01:12:19.628Z,14.63
2019-05-07T01:14:44.253Z,15.53
2019-05-07T01:17:08.725Z,15.73
2019-05-07T01:19:33.371Z,19.10
2019-05-07T01:21:57.910Z,16.07
2019-05-07T01:24:23.350Z,16.83
2019-05-07T01:26:47.996Z,17.87
2019-05-07T01:29:12.992Z,16.20
2019-05-07T01:31:39.256Z,18.07
2019-05-07T01:34:22.963Z,17.97
2019-05-07T01:36:47.094Z,16.57
2019-05-07T01:39:13.089Z,19.57
2019-05-07T01:41:37.731Z,17.57
2019-05-07T01:44:02.262Z,18.77
2019-05-07T01:46:26.746Z,20.73
2019-05-07T01:48:53.570Z,19.83
2019-05-07T01:51:17.527Z,21.43
2019-05-07T01:53:43.026Z,21.20
2019-05-07T01:56:07.897Z,18.47
2019-05-07T01:58:33.225Z,21.80
2019-05-07T02:00:57.978Z,19.30
2019-05-07T02:03:32.636Z,20.73
2019-05-07T02:06:10.358Z,21.40
2019-05-07T02:08:42.474Z,21.13
2019-05-07T02:11:12.875Z,20.93
2019-05-07T02:13:37.618Z,18.97
2019-05-07T02:16:04.252Z,20.90
2019-05-07T02:18:28.338Z,23.57
2019-05-07T02:20:52.953Z,25.87
2019-05-07T02:23:17.454Z,23.23
2019-05-07T02:25:42.161Z,20.53
2019-05-07T02:28:06.860Z,22.73
2019-05-07T02:30:34.570Z,21.97
2019-05-07T02:32:57.630Z,22.93
2019-05-07T02:35:23.456Z,21.50
2019-05-07T02:37:53.418Z,19.63
2019-05-07T02:40:24.039Z,22.63
2019-05-07T02:42:48.520Z,25.00
2019-05-07T02:45:17.563Z,22.43
2019-05-07T02:47:43.812Z,24.93
2019-05-07T02:50:12.927Z,23.47
2019-05-07T02:52:53.318Z,27.53
2019-05-07T02:55:17.928Z,22.00
2019-05-07T02:57:43.460Z,23.77
2019-05-07T03:00:08.502Z,22.13
2019-05-07T03:02:33.338Z,22.73
2019-05-07T03:04:58.118Z,25.47
2019-05-07T03:07:24.170Z,25.13
2019-05-07T03:09:49.038Z,26.83
2019-05-07T03:12:13.638Z,24.30
2019-05-07T03:14:38.196Z,22.03
2019-05-07T03:17:03.222Z,24.90
2019-05-07T03:19:28.675Z,27.57
2019-05-07T03:21:54.546Z,23.77
2019-05-07T03:24:36.519Z,28.17
2019-05-07T03:27:03.191Z,22.47
2019-05-07T03:29:28.332Z,22.73
2019-05-07T03:31:59.096Z,25.80
2019-05-07T03:34:28.342Z,27.53
2019-05-07T03:37:06.099Z,22.90
2019-05-07T03:39:29.444Z,21.83
2019-05-07T03:41:53.996Z,26.83
2019-05-07T03:44:20.108Z,21.90
2019-05-07T03:46:56.735Z,25.63
2019-05-07T03:49:13.693Z,26.07
2019-05-07T03:51:38.443Z,26.20
2019-05-07T03:54:03.210Z,24.67
2019-05-07T03:56:28.263Z,24.70
2019-05-07T03:58:53.063Z,25.90
2019-05-07T04:01:17.835Z,26.77
2019-05-07T04:03:44.513Z,26.40
2019-05-07T04:06:08.562Z,24.63
2019-05-07T04:08:33.608Z,28.37
2019-05-07T04:10:58.259Z,23.43
2019-05-07T04:13:24.021Z,24.07
2019-05-07T04:15:49.013Z,23.87
2019-05-07T04:18:13.665Z,21.67
2019-05-07T04:20:38.172Z,25.27
2019-05-07T04:23:04.277Z,23.67
2019-05-07T04:25:39.419Z,26.00
2019-05-07T04:28:08.382Z,28.73
2019-05-07T04:30:33.894Z,26.47
2019-05-07T04:33:00.004Z,26.10
2019-05-07T04:35:29.297Z,25.83
2019-05-07T04:37:53.801Z,27.30
2019-05-07T04:40:18.270Z,23.13
2019-05-07T04:42:42.934Z,24.73
2019-05-07T04:45:08.175Z,23.90
2019-05-07T04:47:42.531Z,24.10
2019-05-07T04:49:58.936Z,26.47
2019-05-07T04:52:33.669Z,25.93
2019-05-07T04:54:57.238Z,29.03
2019-05-07T04:57:27.523Z,24.03
2019-05-07T04:59:53.377Z,24.63
2019-05-07T05:02:22.872Z,26.63
2019-05-07T05:04:45.854Z,26.80
2019-05-07T05:07:13.233Z,28.40
2019-05-07T05:09:36.495Z,23.93
2019-05-07T05:12:02.648Z,26.40
2019-05-07T05:14:27.256Z,26.57
2019-05-07T05:16:52.460Z,27.23
2019-05-07T05:19:17.282Z,27.73
2019-05-07T05:21:52.918Z,22.30
2019-05-07T05:24:19.128Z,25.03
2019-05-07T05:26:43.607Z,25.23
2019-05-07T05:29:08.089Z,23.37
2019-05-07T05:31:33.157Z,27.27
2019-05-07T05:33:57.870Z,27.10
2019-05-07T05:36:22.435Z,28.10
2019-05-07T05:38:46.914Z,26.07
2019-05-07T05:41:12.296Z,23.27
2019-05-07T05:43:44.905Z,26.17
2019-05-07T05:46:12.138Z,24.00
2019-05-07T05:48:36.888Z,20.17
2019-05-07T05:51:02.991Z,22.30
2019-05-07T05:53:29.176Z,19.27
2019-05-07T05:55:55.384Z,22.80
2019-05-07T05:58:37.970Z,20.63
2019-05-07T06:01:04.082Z,21.53
2019-05-07T06:03:39.262Z,20.10
2019-05-07T06:06:14.265Z,18.53
2019-05-07T06:08:43.276Z,19.43
2019-05-07T06:11:11.877Z,19.63
2019-05-07T06:13:54.292Z,16.40
2019-05-07T06:16:22.033Z,18.13
2019-05-07T06:18:54.514Z,16.60
2019-05-07T06:21:20.612Z,15.30
2019-05-07T06:23:46.741Z,15.20
2019-05-07T06:26:12.668Z,16.70
2019-05-07T06:28:37.363Z,16.63
2019-05-07T06:31:02.238Z,12.87
2019-05-07T06:33:26.722Z,11.97
2019-05-07T06:35:52.061Z,15.87
2019-05-07T06:38:16.736Z,15.63
2019-05-07T06:40:52.082Z,13.20
2019-05-07T06:43:18.182Z,13.80
2019-05-07T06:45:44.827Z,13.40
2019-05-07T06:48:09.277Z,11.00
2019-05-07T06:50:33.889Z,12.63
2019-05-07T06:52:58.366Z,11.20
2019-05-07T06:55:22.998Z,11.70
2019-05-07T06:57:58.210Z,10.53
2019-05-07T07:00:28.736Z,10.10
2019-05-07T07:03:04.773Z,11.60
2019-05-07T07:05:33.557Z,9.53
2019-05-07T07:08:17.763Z,9.27
2019-05-07T07:11:02.414Z,5.53
2019-05-07T07:13:27.711Z,7.97
2019-05-07T07:15:52.322Z,11.67
2019-05-07T07:18:16.808Z,8.77
2019-05-07T07:20:43.013Z,8.17
2019-05-07T07:23:07.799Z,6.80
2019-05-07T07:25:32.722Z,7.00
2019-05-07T07:27:57.213Z,9.10
2019-05-07T07:30:26.155Z,9.43
2019-05-07T07:32:52.337Z,4.57
2019-05-07T07:35:18.354Z,6.30
2019-05-07T07:37:43.114Z,4.90
2019-05-07T07:40:13.985Z,6.67
2019-05-07T07:42:38.451Z,8.33
2019-05-07T07:45:18.677Z,5.93
2019-05-07T07:47:43.263Z,7.50
2019-05-07T07:50:08.010Z,6.13
2019-05-07T07:52:32.474Z,9.67
2019-05-07T07:54:56.920Z,7.17
2019-05-07T07:57:39.176Z,8.03
2019-05-07T08:00:06.726Z,4.67
2019-05-07T08:02:32.864Z,6.73
2019-05-07T08:04:57.336Z,6.53
2019-05-07T08:07:22.809Z,5.70
2019-05-07T08:09:47.468Z,5.13
2019-05-07T08:12:12.700Z,6.90
2019-05-07T08:14:37.372Z,7.37
2019-05-07T08:17:03.610Z,7.43
2019-05-07T08:19:28.195Z,3.00
2019-05-07T08:21:52.665Z,2.87
2019-05-07T08:24:17.131Z,3.13
2019-05-07T08:26:42.870Z,5.07
2019-05-07T08:29:07.508Z,7.20
2019-05-07T08:31:51.744Z,3.83
2019-05-07T08:34:21.851Z,3.50
2019-05-07T08:36:46.480Z,5.00
2019-05-07T08:39:13.027Z,3.97
2019-05-07T08:41:37.163Z,2.90
2019-05-07T08:44:11.575Z,5.00
2019-05-07T08:46:37.081Z,4.07
2019-05-07T08:49:01.981Z,4.87
2019-05-07T08:51:26.477Z,5.50
2019-05-07T08:54:05.961Z,6.83
2019-05-07T08:56:31.889Z,3.77
2019-05-07T08:58:56.444Z,3.57
2019-05-07T09:01:21.847Z,3.97
2019-05-07T09:03:46.317Z,4.07
2019-05-07T09:06:11.791Z,2.83
2019-05-07T09:08:36.283Z,3.93
2019-05-07T09:11:01.783Z,5.23
2019-05-07T09:13:26.311Z,6.10
2019-05-07T09:15:52.822Z,3.73
2019-05-07T09:18:17.034Z,7.83
2019-05-07T09:20:42.538Z,5.77
2019-05-07T09:23:07.173Z,3.33
2019-05-07T09:25:33.352Z,4.13
2019-05-07T09:27:57.913Z,3.40
2019-05-07T09:30:28.545Z,3.43
2019-05-07T09:33:02.500Z,3.40
2019-05-07T09:35:42.413Z,3.50
2019-05-07T09:38:06.908Z,2.40
2019-05-07T09:40:32.040Z,4.00
2019-05-07T09:42:56.604Z,3.10
2019-05-07T09:45:22.512Z,4.77
2019-05-07T09:47:47.130Z,2.87
2019-05-07T09:50:12.452Z,3.63
2019-05-07T09:52:36.969Z,2.03
2019-05-07T09:55:06.701Z,3.60
2019-05-07T09:57:31.329Z,3.07
2019-05-07T09:59:54.244Z,7.40
2019-05-07T10:02:18.858Z,3.50
2019-05-07T10:04:43.402Z,2.50
2019-05-07T10:07:08.024Z,2.83
2019-05-07T10:09:32.903Z,4.77
2019-05-07T10:12:02.747Z,2.80
2019-05-07T10:14:27.421Z,2.20
2019-05-07T10:17:11.924Z,3.23
2019-05-07T10:19:36.161Z,4.27
2019-05-07T10:22:02.338Z,3.60
2019-05-07T10:24:27.235Z,3.97
2019-05-07T10:26:53.129Z,3.30
2019-05-07T10:29:17.954Z,2.70
2019-05-07T10:31:42.947Z,4.37
2019-05-07T10:34:07.486Z,1.97
2019-05-07T10:36:32.180Z,1.90
2019-05-07T10:38:56.773Z,4.03
2019-05-07T10:41:22.382Z,4.10
2019-05-07T10:43:47.021Z,6.30
2019-05-07T10:46:13.102Z,4.83
2019-05-07T10:48:42.608Z,2.50
2019-05-07T10:51:07.146Z,3.77
2019-05-07T10:53:32.132Z,1.87
2019-05-07T10:55:58.186Z,4.57
2019-05-07T10:58:22.697Z,5.17
2019-05-07T11:00:47.615Z,4.47
2019-05-07T11:03:12.764Z,4.90
2019-05-07T11:05:37.301Z,4.53
2019-05-07T11:08:02.482Z,2.63
2019-05-07T11:10:27.043Z,3.03
2019-05-07T11:12:51.802Z,3.03
2019-05-07T11:15:16.479Z,3.03
2019-05-07T11:18:02.640Z,2.57
2019-05-07T11:20:27.056Z,3.23
2019-05-07T11:22:52.199Z,2.60
2019-05-07T11:25:16.922Z,2.73
2019-05-07T11:27:42.098Z,4.13
2019-05-07T11:30:08.597Z,2.57
2019-05-07T11:32:33.088Z,4.67
2019-05-07T11:34:57.638Z,2.97
2019-05-07T11:37:22.644Z,2.40
2019-05-07T11:39:47.061Z,1.97
2019-05-07T11:42:16.199Z,3.23
2019-05-07T11:44:42.375Z,2.10
2019-05-07T11:47:17.897Z,3.07
2019-05-07T11:50:03.053Z,4.60
2019-05-07T11:52:28.282Z,2.20
2019-05-07T11:54:52.770Z,3.93
2019-05-07T11:57:17.229Z,4.20
2019-05-07T11:59:41.895Z,4.07
2019-05-07T12:02:06.623Z,2.73
2019-05-07T12:04:32.047Z,2.53
2019-05-07T12:06:56.719Z,2.97
2019-05-07T12:09:21.848Z,3.53
2019-05-07T12:11:46.365Z,2.40
2019-05-07T12:14:12.305Z,2.50
2019-05-07T12:16:37.063Z,2.87
2019-05-07T12:19:02.284Z,1.97
2019-05-07T12:21:26.884Z,2.97
2019-05-07T12:23:52.500Z,3.67
2019-05-07T12:26:16.972Z,3.60
2019-05-07T12:28:41.918Z,2.37
2019-05-07T12:31:26.344Z,4.37
2019-05-07T12:34:04.254Z,3.40
2019-05-07T12:36:28.929Z,1.77
2019-05-07T12:38:53.488Z,2.87
2019-05-07T12:41:33.193Z,4.03
2019-05-07T12:43:56.450Z,1.60
2019-05-07T12:46:22.360Z,2.70
2019-05-07T12:48:47.179Z,3.30
2019-05-07T12:51:12.568Z,3.40
2019-05-07T12:53:38.751Z,4.67
2019-05-07T12:56:04.581Z,3.50
2019-05-07T12:58:29.149Z,1.80
2019-05-07T13:00:55.388Z,5.20
2019-05-07T13:03:21.902Z,2.93
2019-05-07T13:05:46.424Z,1.93
2019-05-07T13:08:12.338Z,2.13
2019-05-07T13:10:36.958Z,3.40
2019-05-07T13:13:02.196Z,2.70
2019-05-07T13:15:28.004Z,3.10
2019-05-07T13:17:52.902Z,3.17
2019-05-07T13:20:17.735Z,2.80
2019-05-07T13:22:42.789Z,1.73
2019-05-07T13:25:08.030Z,2.03
2019-05-07T13:27:32.632Z,2.80
2019-05-07T13:29:57.269Z,3.07
2019-05-07T13:32:23.036Z,3.53
2019-05-07T13:34:47.674Z,3.47
2019-05-07T13:37:21.914Z,3.13
2019-05-07T13:39:48.479Z,1.87
2019-05-07T13:42:32.046Z,3.27
2019-05-07T13:45:02.920Z,3.27
2019-05-07T13:47:29.284Z,3.00
2019-05-07T13:49:54.934Z,4.37
2019-05-07T13:52:19.569Z,3.37
2019-05-07T13:54:44.144Z,3.43
2019-05-07T13:57:08.708Z,1.63
2019-05-07T13:59:33.317Z,1.63
2019-05-07T14:01:59.519Z,1.40
2019-05-07T14:04:23.989Z,2.67
2019-05-07T14:06:48.677Z,2.03
2019-05-07T14:09:23.810Z,3.53
2019-05-07T14:11:47.749Z,4.10
2019-05-07T14:14:12.505Z,2.60
2019-05-07T14:16:36.996Z,2.37
2019-05-07T14:19:01.932Z,1.70
2019-05-07T14:21:27.960Z,3.30
2019-05-07T14:23:52.437Z,4.77
2019-05-07T14:26:18.685Z,2.37
2019-05-07T14:28:43.199Z,3.33
2019-05-07T14:31:07.666Z,5.20
2019-05-07T14:33:42.876Z,2.57
2019-05-07T14:36:22.374Z,3.03
2019-05-07T14:38:48.719Z,2.33
2019-05-07T14:41:13.410Z,1.67
2019-05-07T14:43:41.711Z,2.47
2019-05-07T14:46:05.828Z,1.90
2019-05-07T14:48:30.375Z,3.67
2019-05-07T14:50:54.958Z,4.17
2019-05-07T14:53:22.228Z,4.07
2019-05-07T14:55:46.291Z,2.80
2019-05-07T14:58:12.394Z,2.13
2019-05-07T15:00:37.190Z,4.93
2019-05-07T15:03:02.075Z,4.07
2019-05-07T15:05:27.006Z,2.00
2019-05-07T15:07:51.800Z,3.47
2019-05-07T15:10:16.788Z,2.40
2019-05-07T15:12:42.650Z,3.77
2019-05-07T15:15:08.202Z,2.40
2019-05-07T15:17:46.771Z,3.50
2019-05-07T15:20:11.490Z,2.87
2019-05-07T15:22:49.873Z,1.97
2019-05-07T15:25:16.248Z,2.30
2019-05-07T15:27:42.109Z,2.27
2019-05-07T15:30:07.127Z,3.07
2019-05-07T15:32:32.294Z,2.87
2019-05-07T15:34:56.954Z,2.77
2019-05-07T15:37:21.572Z,3.43
2019-05-07T15:39:46.185Z,1.30
2019-05-07T15:42:10.965Z,3.47
2019-05-07T15:44:35.576Z,2.37
2019-05-07T15:47:02.583Z,2.60
2019-05-07T15:49:27.087Z,2.20
2019-05-07T15:51:53.263Z,2.67
2019-05-07T15:54:17.698Z,3.23
2019-05-07T15:56:42.243Z,4.17
2019-05-07T15:59:06.774Z,2.30
2019-05-07T16:01:31.312Z,3.53
2019-05-07T16:03:55.778Z,1.40
2019-05-07T16:06:22.036Z,4.47
2019-05-07T16:08:49.219Z,2.67
2019-05-07T16:11:13.939Z,3.63
2019-05-07T16:13:46.140Z,2.43
2019-05-07T16:16:10.608Z,2.73
2019-05-07T16:18:42.046Z,2.23
2019-05-07T16:21:06.048Z,1.83
2019-05-07T16:23:32.460Z,3.07
2019-05-07T16:25:56.842Z,3.83
2019-05-07T16:28:22.010Z,4.87
2019-05-07T16:30:46.849Z,3.07
2019-05-07T16:33:12.759Z,1.83
2019-05-07T16:35:37.427Z,2.67
2019-05-07T16:38:01.909Z,2.97
2019-05-07T16:40:26.392Z,2.53
2019-05-07T16:42:52.406Z,1.97
2019-05-07T16:45:17.707Z,3.90
2019-05-07T16:47:42.168Z,2.37
2019-05-07T16:50:07.069Z,1.93
2019-05-07T16:52:32.476Z,2.83
2019-05-07T16:54:57.693Z,2.13
2019-05-07T16:57:33.682Z,3.40
2019-05-07T16:59:58.352Z,3.73
2019-05-07T17:02:24.551Z,1.87
2019-05-07T17:05:08.735Z,1.47
2019-05-07T17:07:34.929Z,4.50
2019-05-07T17:09:59.490Z,2.80
2019-05-07T17:12:24.039Z,2.70
2019-05-07T17:14:48.650Z,3.57
2019-05-07T17:17:13.094Z,2.57
2019-05-07T17:19:37.563Z,1.57
2019-05-07T17:22:02.826Z,2.67
2019-05-07T17:24:28.280Z,4.47
2019-05-07T17:26:52.785Z,3.80
2019-05-07T17:29:17.252Z,2.73
2019-05-07T17:31:42.420Z,2.33
2019-05-07T17:34:07.125Z,5.97
2019-05-07T17:36:33.018Z,3.77
2019-05-07T17:38:57.715Z,1.23
2019-05-07T17:41:26.794Z,3.97
2019-05-07T17:43:48.497Z,2.43
2019-05-07T17:46:13.690Z,3.80
2019-05-07T17:48:38.206Z,1.40
2019-05-07T17:51:07.138Z,1.60
2019-05-07T17:53:31.996Z,5.97
2019-05-07T17:55:56.716Z,3.27
2019-05-07T17:58:21.261Z,3.87
2019-05-07T18:00:47.460Z,3.47
2019-05-07T18:03:32.530Z,4.47
2019-05-07T18:05:57.175Z,2.13
2019-05-07T18:08:21.821Z,2.53
2019-05-07T18:10:46.339Z,2.53
2019-05-07T18:13:11.863Z,3.90
2019-05-07T18:15:36.423Z,3.03
2019-05-07T18:18:03.130Z,2.00
2019-05-07T18:20:27.599Z,2.20
2019-05-07T18:22:52.214Z,5.67
2019-05-07T18:25:16.945Z,3.23
2019-05-07T18:27:42.047Z,1.93
2019-05-07T18:30:07.366Z,5.70
2019-05-07T18:32:33.565Z,1.63
2019-05-07T18:34:58.038Z,4.30
2019-05-07T18:37:22.986Z,3.40
2019-05-07T18:39:47.474Z,2.53
2019-05-07T18:42:12.672Z,3.33
2019-05-07T18:44:37.373Z,4.77
2019-05-07T18:47:02.486Z,2.00
2019-05-07T18:49:27.262Z,2.40
2019-05-07T18:51:52.250Z,3.00
2019-05-07T18:54:29.689Z,6.17
2019-05-07T18:56:43.032Z,4.43
2019-05-07T18:59:07.578Z,6.43
2019-05-07T19:01:33.872Z,5.03
2019-05-07T19:03:58.481Z,2.70
2019-05-07T19:06:23.090Z,3.63
2019-05-07T19:08:48.345Z,4.00
2019-05-07T19:11:12.983Z,2.23
2019-05-07T19:13:37.435Z,2.30
2019-05-07T19:16:02.963Z,2.67
2019-05-07T19:18:27.497Z,5.40
2019-05-07T19:20:52.988Z,5.03
2019-05-07T19:23:17.621Z,4.03
2019-05-07T19:25:42.250Z,3.03
2019-05-07T19:28:06.858Z,2.47
2019-05-07T19:30:32.685Z,2.70
2019-05-07T19:32:57.363Z,2.77
2019-05-07T19:35:23.088Z,4.17
2019-05-07T19:37:47.724Z,3.07
2019-05-07T19:40:12.737Z,3.53
2019-05-07T19:42:37.293Z,3.77
2019-05-07T19:45:02.674Z,3.20
2019-05-07T19:47:27.371Z,2.40
2019-05-07T19:49:52.439Z,4.17
2019-05-07T19:52:17.163Z,3.57
2019-05-07T19:54:44.331Z,5.10
2019-05-07T19:57:09.325Z,3.53
2019-05-07T19:59:33.937Z,3.37
2019-05-07T20:02:00.084Z,5.00
2019-05-07T20:04:24.639Z,3.77
2019-05-07T20:06:49.242Z,1.83
2019-05-07T20:09:15.844Z,3.97
2019-05-07T20:11:48.158Z,4.17
2019-05-07T20:14:12.700Z,4.53
2019-05-07T20:16:37.240Z,5.27
2019-05-07T20:19:01.724Z,5.67
2019-05-07T20:21:26.358Z,4.40
2019-05-07T20:23:52.728Z,3.87
2019-05-07T20:26:17.133Z,4.83
2019-05-07T20:28:41.979Z,4.33
2019-05-07T20:31:06.586Z,8.27
2019-05-07T20:33:32.737Z,7.97
2019-05-07T20:35:57.385Z,8.53
2019-05-07T20:38:21.938Z,7.53
2019-05-07T20:40:46.587Z,4.70
2019-05-07T20:43:12.626Z,4.43
2019-05-07T20:45:37.370Z,3.40
2019-05-07T20:48:02.551Z,3.33
2019-05-07T20:50:27.417Z,3.60
2019-05-07T20:52:52.474Z,4.03
2019-05-07T20:55:37.029Z,3.60
2019-05-07T20:58:03.148Z,4.17
2019-05-07T21:00:28.985Z,5.00
2019-05-07T21:03:12.502Z,4.53
2019-05-07T21:05:37.095Z,3.13
2019-05-07T21:08:01.686Z,5.67
2019-05-07T21:10:26.161Z,5.90
2019-05-07T21:12:51.754Z,5.13
2019-05-07T21:15:16.598Z,3.67
2019-05-07T21:17:42.886Z,4.00
2019-05-07T21:20:07.523Z,4.10
2019-05-07T21:22:32.096Z,6.40
2019-05-07T21:24:56.544Z,7.30
2019-05-07T21:27:21.074Z,4.43
2019-05-07T21:29:45.544Z,9.17
2019-05-07T21:32:12.305Z,4.17
2019-05-07T21:34:36.232Z,5.40
2019-05-07T21:37:03.069Z,5.57
2019-05-07T21:39:26.947Z,5.37
2019-05-07T21:41:52.034Z,4.10
2019-05-07T21:44:16.680Z,4.87
2019-05-07T21:46:42.584Z,7.20
2019-05-07T21:49:07.287Z,7.43
2019-05-07T21:51:31.813Z,4.57
2019-05-07T21:53:57.933Z,4.67
2019-05-07T21:56:27.037Z,4.70
2019-05-07T21:58:56.017Z,4.27
2019-05-07T22:01:34.179Z,3.93
2019-05-07T22:03:58.786Z,3.73
2019-05-07T22:06:23.317Z,5.57
2019-05-07T22:08:47.915Z,4.97
2019-05-07T22:11:12.575Z,7.00
2019-05-07T22:13:37.071Z,5.13
2019-05-07T22:16:02.533Z,3.20
2019-05-07T22:18:27.273Z,5.07
2019-05-07T22:20:52.269Z,4.53
2019-05-07T22:23:16.886Z,4.67
2019-05-07T22:25:42.166Z,3.80
2019-05-07T22:30:59.131Z,3.70
2019-05-07T22:33:41.767Z,5.87
2019-05-07T22:36:07.748Z,4.40
2019-05-07T22:38:32.442Z,4.13
2019-05-07T22:40:56.863Z,5.93
2019-05-07T22:43:22.579Z,3.07
2019-05-07T22:45:47.177Z,4.17
2019-05-07T22:48:12.256Z,6.80
2019-05-07T22:50:37.225Z,4.17
2019-05-07T22:53:02.042Z,4.10
2019-05-07T22:55:26.809Z,4.00
2019-05-07T22:58:04.970Z,2.90
2019-05-07T23:00:34.076Z,4.80
2019-05-07T23:02:58.556Z,4.23
2019-05-07T23:05:23.139Z,4.83
2019-05-07T23:07:47.586Z,6.00
2019-05-07T23:10:12.305Z,5.87
2019-05-07T23:12:36.846Z,6.10
2019-05-07T23:15:03.038Z,4.50
2019-05-07T23:17:27.511Z,3.50
2019-05-07T23:19:54.960Z,3.77
2019-05-07T23:22:18.200Z,6.10
2019-05-07T23:24:42.727Z,4.33
2019-05-07T23:27:07.270Z,4.33
2019-05-07T23:29:33.062Z,4.73
2019-05-07T23:31:57.673Z,4.47
2019-05-07T23:34:22.371Z,3.57
2019-05-07T23:36:47.022Z,4.83
2019-05-07T23:39:13.153Z,3.87
2019-05-07T23:41:45.086Z,3.80
2019-05-07T23:44:12.507Z,3.73
2019-05-07T23:46:36.500Z,5.03
2019-05-07T23:49:02.883Z,5.87
2019-05-07T23:51:27.359Z,3.97
2019-05-07T23:53:51.933Z,4.93
2019-05-07T23:56:16.492Z,6.67
2019-05-07T23:58:41.948Z,3.93
